createdAt,value
2022-12-06T00:02:14.430Z,1.96
2022-12-06T00:04:43.298Z,2.00
2022-12-06T00:07:11.415Z,2.02
2022-12-06T00:09:40.231Z,1.99
2022-12-06T00:12:06.721Z,1.99
2022-12-06T00:14:33.078Z,2.02
2022-12-06T00:16:59.448Z,2.00
2022-12-06T00:19:26.071Z,1.99
2022-12-06T00:21:52.471Z,1.91
2022-12-06T00:24:21.521Z,1.89
2022-12-06T00:26:49.567Z,1.90
2022-12-06T00:29:23.690Z,1.79
2022-12-06T00:31:50.811Z,1.86
2022-12-06T00:34:18.699Z,1.88
2022-12-06T00:36:45.079Z,1.96
2022-12-06T00:39:13.937Z,1.97
2022-12-06T00:41:41.138Z,2.00
2022-12-06T00:44:08.232Z,2.05
2022-12-06T00:46:35.699Z,2.14
2022-12-06T00:49:04.188Z,2.17
2022-12-06T00:51:35.482Z,2.07
2022-12-06T00:54:02.703Z,2.07
2022-12-06T00:56:32.150Z,1.99
2022-12-06T00:58:58.790Z,2.00
2022-12-06T01:01:28.376Z,2.04
2022-12-06T01:03:59.728Z,2.04
2022-12-06T01:06:31.372Z,2.05
2022-12-06T01:09:01.891Z,2.13
2022-12-06T01:11:29.124Z,2.25
2022-12-06T01:13:55.992Z,2.23
2022-12-06T01:16:25.311Z,2.22
2022-12-06T01:18:56.956Z,2.27
2022-12-06T01:21:26.026Z,2.26
2022-12-06T01:23:54.284Z,2.28
2022-12-06T01:26:26.283Z,2.19
2022-12-06T01:28:53.287Z,2.22
2022-12-06T01:31:19.983Z,2.23
2022-12-06T01:33:46.506Z,2.22
2022-12-06T01:36:21.213Z,2.23
2022-12-06T01:38:54.847Z,2.27
2022-12-06T01:41:23.950Z,2.34
2022-12-06T01:43:50.561Z,2.34
2022-12-06T01:46:26.091Z,2.30
2022-12-06T01:49:00.602Z,2.29
2022-12-06T01:51:27.514Z,2.33
2022-12-06T01:53:56.047Z,2.34
2022-12-06T01:56:22.541Z,2.33
2022-12-06T01:58:52.549Z,2.34
2022-12-06T02:01:18.945Z,2.40
2022-12-06T02:03:47.443Z,2.40
2022-12-06T02:06:16.359Z,2.47
2022-12-06T02:08:44.698Z,2.54
2022-12-06T02:11:11.442Z,2.63
2022-12-06T02:13:39.706Z,2.63
2022-12-06T02:16:30.523Z,2.59
2022-12-06T02:19:18.040Z,2.65
2022-12-06T02:21:58.050Z,2.63
2022-12-06T02:25:21.209Z,2.68
2022-12-06T02:28:06.138Z,2.82
2022-12-06T02:30:38.657Z,2.59
2022-12-06T02:33:21.283Z,2.68
2022-12-06T02:36:00.550Z,2.63
2022-12-06T02:38:45.527Z,2.59
2022-12-06T02:41:20.390Z,2.57
2022-12-06T02:43:54.465Z,2.58
2022-12-06T02:46:23.263Z,2.62
2022-12-06T02:48:53.318Z,2.60
2022-12-06T02:51:20.941Z,2.59
2022-12-06T02:53:51.702Z,2.65
2022-12-06T02:56:19.099Z,2.72
2022-12-06T02:58:46.531Z,2.69
2022-12-06T03:01:18.634Z,2.67
2022-12-06T03:03:57.187Z,2.76
2022-12-06T03:06:36.433Z,2.73
2022-12-06T03:09:05.747Z,2.79
2022-12-06T03:11:47.318Z,2.78
2022-12-06T03:14:24.271Z,2.86
2022-12-06T03:17:27.698Z,2.90
2022-12-06T03:19:59.831Z,2.95
2022-12-06T03:22:40.341Z,2.92
2022-12-06T03:25:08.155Z,2.87
2022-12-06T03:27:36.270Z,2.91
2022-12-06T03:30:09.668Z,2.83
2022-12-06T03:32:38.114Z,2.80
2022-12-06T03:35:09.981Z,2.82
2022-12-06T03:37:40.681Z,2.83
2022-12-06T03:40:16.712Z,2.90
2022-12-06T03:42:43.519Z,2.81
2022-12-06T03:45:12.180Z,2.80
2022-12-06T03:47:58.807Z,2.86
2022-12-06T03:50:32.415Z,2.90
2022-12-06T03:53:01.327Z,2.91
2022-12-06T03:55:27.775Z,3.03
2022-12-06T03:57:54.116Z,3.10
2022-12-06T04:00:20.526Z,3.08
2022-12-06T04:02:46.916Z,3.08
2022-12-06T04:05:13.777Z,3.13
2022-12-06T04:07:40.222Z,3.14
2022-12-06T04:10:07.158Z,3.08
2022-12-06T04:12:53.706Z,2.99
2022-12-06T04:15:21.815Z,3.07
2022-12-06T04:18:07.726Z,3.09
2022-12-06T04:20:52.992Z,3.09
2022-12-06T04:23:20.231Z,3.10
2022-12-06T04:25:46.987Z,3.14
2022-12-06T04:28:32.129Z,3.10
2022-12-06T04:31:21.789Z,2.97
2022-12-06T04:34:11.263Z,3.03
2022-12-06T04:36:58.163Z,2.93
2022-12-06T04:39:24.855Z,2.90
2022-12-06T04:42:13.330Z,3.00
2022-12-06T04:44:39.862Z,2.95
2022-12-06T04:47:06.986Z,3.01
2022-12-06T04:49:34.634Z,2.92
2022-12-06T04:52:01.652Z,2.93
2022-12-06T04:54:29.962Z,2.92
2022-12-06T04:56:57.543Z,2.94
2022-12-06T04:59:25.387Z,2.95
2022-12-06T05:01:52.647Z,2.92
2022-12-06T05:04:19.386Z,2.88
2022-12-06T05:06:45.859Z,2.98
2022-12-06T05:09:12.348Z,3.00
2022-12-06T05:11:38.830Z,2.84
2022-12-06T05:14:05.177Z,2.81
2022-12-06T05:16:31.862Z,2.88
2022-12-06T05:18:58.348Z,2.88
2022-12-06T05:21:25.361Z,2.92
2022-12-06T05:23:55.485Z,2.89
2022-12-06T05:26:25.804Z,2.85
2022-12-06T05:28:53.737Z,2.88
2022-12-06T05:31:20.882Z,2.93
2022-12-06T05:33:48.148Z,2.86
2022-12-06T05:36:20.395Z,2.89
2022-12-06T05:38:51.279Z,2.91
2022-12-06T05:41:19.858Z,2.93
2022-12-06T05:43:46.201Z,2.96
2022-12-06T05:46:12.746Z,2.94
2022-12-06T05:48:39.499Z,2.83
2022-12-06T05:51:06.035Z,2.90
2022-12-06T05:53:32.473Z,2.86
2022-12-06T05:56:05.208Z,2.85
2022-12-06T05:58:31.675Z,2.83
2022-12-06T06:00:57.965Z,2.83
2022-12-06T06:03:24.501Z,2.92
2022-12-06T06:05:53.828Z,3.00
2022-12-06T06:08:20.202Z,2.90
2022-12-06T06:10:46.696Z,2.97
2022-12-06T06:13:13.039Z,2.94
2022-12-06T06:15:39.387Z,2.83
2022-12-06T06:18:08.461Z,2.83
2022-12-06T06:20:34.863Z,2.90
2022-12-06T06:23:01.194Z,2.82
2022-12-06T06:25:27.524Z,2.86
2022-12-06T06:27:54.811Z,2.86
2022-12-06T06:30:21.555Z,2.90
2022-12-06T06:32:48.088Z,2.95
2022-12-06T06:35:14.543Z,2.85
2022-12-06T06:37:40.823Z,2.96
2022-12-06T06:40:07.790Z,2.85
2022-12-06T06:42:34.074Z,2.86
2022-12-06T06:45:00.378Z,2.86
2022-12-06T06:47:26.706Z,2.80
2022-12-06T06:49:53.008Z,2.85
2022-12-06T06:52:20.022Z,2.88
2022-12-06T06:54:46.343Z,2.91
2022-12-06T06:57:17.553Z,2.84
2022-12-06T06:59:45.328Z,2.95
2022-12-06T07:02:16.745Z,2.96
2022-12-06T07:04:44.560Z,2.94
2022-12-06T07:07:19.284Z,2.84
2022-12-06T07:09:49.818Z,2.88
2022-12-06T07:12:16.289Z,2.87
2022-12-06T07:14:42.575Z,2.89
2022-12-06T07:17:09.015Z,2.76
2022-12-06T07:19:35.518Z,2.81
2022-12-06T07:22:02.112Z,2.73
2022-12-06T07:24:28.411Z,2.71
2022-12-06T07:26:57.218Z,2.73
2022-12-06T07:29:23.674Z,2.72
2022-12-06T07:31:50.287Z,2.69
2022-12-06T07:34:18.923Z,2.73
2022-12-06T07:36:45.214Z,2.81
2022-12-06T07:39:14.706Z,2.76
2022-12-06T07:42:00.125Z,2.68
2022-12-06T07:44:44.880Z,2.61
2022-12-06T07:47:12.379Z,2.59
2022-12-06T07:49:38.701Z,2.63
2022-12-06T07:52:05.229Z,2.68
2022-12-06T07:54:31.938Z,2.67
2022-12-06T07:56:58.425Z,2.61
2022-12-06T07:59:25.206Z,2.62
2022-12-06T08:01:52.772Z,2.64
2022-12-06T08:04:19.732Z,2.62
2022-12-06T08:06:46.174Z,2.71
2022-12-06T08:09:12.846Z,2.76
2022-12-06T08:11:39.280Z,2.74
2022-12-06T08:14:06.700Z,2.65
2022-12-06T08:16:33.109Z,2.70
2022-12-06T08:18:59.536Z,2.67
2022-12-06T08:21:26.711Z,2.68
2022-12-06T08:23:54.303Z,2.74
2022-12-06T08:26:21.071Z,2.70
2022-12-06T08:28:49.718Z,2.70
2022-12-06T08:31:23.046Z,2.64
2022-12-06T08:33:49.676Z,2.63
2022-12-06T08:36:19.416Z,2.62
2022-12-06T08:38:47.092Z,2.67
2022-12-06T08:41:32.258Z,2.64
2022-12-06T08:44:02.886Z,2.61
2022-12-06T08:46:30.376Z,2.63
2022-12-06T08:48:59.560Z,2.69
2022-12-06T08:51:26.160Z,2.76
2022-12-06T08:53:53.538Z,2.58
2022-12-06T08:56:20.330Z,2.67
2022-12-06T08:58:46.790Z,2.75
2022-12-06T09:01:16.343Z,2.69
2022-12-06T09:03:43.062Z,2.66
2022-12-06T09:06:10.628Z,2.70
2022-12-06T09:08:37.974Z,2.68
2022-12-06T09:11:07.881Z,2.61
2022-12-06T09:13:36.857Z,2.71
2022-12-06T09:16:08.585Z,2.75
2022-12-06T09:18:35.571Z,2.72
2022-12-06T09:21:10.734Z,2.83
2022-12-06T09:23:37.843Z,2.70
2022-12-06T09:26:06.597Z,2.72
2022-12-06T09:28:39.491Z,2.69
2022-12-06T09:31:07.884Z,2.71
2022-12-06T09:33:35.745Z,2.74
2022-12-06T09:36:10.375Z,2.81
2022-12-06T09:38:39.822Z,2.85
2022-12-06T09:41:33.476Z,2.79
2022-12-06T09:44:24.288Z,2.73
2022-12-06T09:47:11.878Z,2.74
2022-12-06T09:50:08.632Z,2.65
2022-12-06T09:53:11.579Z,2.72
2022-12-06T09:55:47.171Z,2.73
2022-12-06T09:58:21.916Z,2.72
2022-12-06T10:01:00.243Z,2.69
2022-12-06T10:03:49.420Z,2.64
2022-12-06T10:06:20.231Z,2.68
2022-12-06T10:08:49.763Z,2.58
2022-12-06T10:11:35.564Z,2.67
2022-12-06T10:14:40.467Z,2.65
2022-12-06T10:17:51.952Z,2.60
2022-12-06T10:20:41.277Z,2.49
2022-12-06T10:23:29.243Z,2.51
2022-12-06T10:26:01.437Z,2.51
2022-12-06T10:28:56.769Z,2.60
2022-12-06T10:31:54.883Z,2.57
2022-12-06T10:34:28.466Z,2.65
2022-12-06T10:37:24.033Z,2.67
2022-12-06T10:39:56.754Z,2.61
2022-12-06T10:42:47.787Z,2.64
2022-12-06T10:46:08.995Z,2.62
2022-12-06T10:48:43.357Z,2.59
2022-12-06T10:51:14.897Z,2.52
2022-12-06T10:53:47.621Z,2.55
2022-12-06T10:56:30.160Z,2.56
2022-12-06T10:59:03.218Z,2.56
2022-12-06T11:01:36.812Z,2.47
2022-12-06T11:04:16.853Z,2.46
2022-12-06T11:06:55.117Z,2.44
2022-12-06T11:09:40.190Z,2.48
2022-12-06T11:12:31.514Z,2.46
2022-12-06T11:15:18.866Z,2.46
2022-12-06T11:17:50.513Z,2.53
2022-12-06T11:20:27.830Z,2.55
2022-12-06T11:23:20.473Z,2.68
2022-12-06T11:26:23.617Z,2.64
2022-12-06T11:29:04.046Z,2.68
2022-12-06T11:31:38.765Z,2.57
2022-12-06T11:34:14.418Z,2.58
2022-12-06T11:36:41.443Z,2.63
2022-12-06T11:39:07.822Z,2.61
2022-12-06T11:41:37.422Z,2.55
2022-12-06T11:44:04.100Z,2.59
2022-12-06T11:46:30.723Z,2.52
2022-12-06T11:49:16.019Z,2.48
2022-12-06T11:51:42.503Z,2.56
2022-12-06T11:54:34.926Z,2.63
2022-12-06T11:57:22.147Z,2.68
2022-12-06T12:00:12.773Z,2.60
2022-12-06T12:02:40.423Z,2.64
2022-12-06T12:05:17.841Z,2.66
2022-12-06T12:07:48.281Z,2.73
2022-12-06T12:10:33.979Z,2.54
2022-12-06T12:13:31.109Z,2.47
2022-12-06T12:16:05.455Z,2.60
2022-12-06T12:18:36.498Z,2.58
2022-12-06T12:21:06.118Z,2.56
2022-12-06T12:23:38.402Z,2.47
2022-12-06T12:26:11.519Z,2.48
2022-12-06T12:28:38.778Z,2.60
2022-12-06T12:31:23.983Z,2.66
2022-12-06T12:34:15.273Z,2.59
2022-12-06T12:36:47.873Z,2.52
2022-12-06T12:39:28.588Z,2.50
2022-12-06T12:42:02.635Z,2.49
2022-12-06T12:44:38.138Z,2.45
2022-12-06T12:47:18.488Z,2.47
2022-12-06T12:50:00.401Z,2.35
2022-12-06T12:52:38.811Z,2.33
2022-12-06T12:55:21.064Z,2.24
2022-12-06T12:57:52.732Z,2.31
2022-12-06T13:00:20.992Z,2.26
2022-12-06T13:02:58.371Z,2.28
2022-12-06T13:05:34.595Z,2.34
2022-12-06T13:08:11.276Z,2.41
2022-12-06T13:10:43.083Z,2.44
2022-12-06T13:13:25.241Z,2.42
2022-12-06T13:15:55.243Z,2.43
2022-12-06T13:18:24.134Z,2.38
2022-12-06T13:20:53.009Z,2.24
2022-12-06T13:23:27.273Z,2.26
2022-12-06T13:26:22.811Z,2.18
2022-12-06T13:28:54.742Z,2.19
2022-12-06T13:31:27.680Z,2.13
2022-12-06T13:33:59.589Z,2.16
2022-12-06T13:36:31.414Z,2.10
2022-12-06T13:38:58.193Z,2.24
2022-12-06T13:41:58.982Z,2.27
2022-12-06T13:44:50.687Z,2.22
2022-12-06T13:47:26.365Z,2.05
2022-12-06T13:50:14.881Z,2.00
2022-12-06T13:52:47.258Z,2.03
2022-12-06T13:55:25.756Z,1.99
2022-12-06T13:57:54.955Z,1.99
2022-12-06T14:00:30.588Z,2.03
2022-12-06T14:03:03.003Z,1.87
2022-12-06T14:06:14.330Z,2.04
2022-12-06T14:08:47.234Z,1.94
2022-12-06T14:11:13.980Z,1.91
2022-12-06T14:13:45.562Z,1.84
2022-12-06T14:16:22.796Z,1.75
2022-12-06T14:18:50.315Z,1.72
2022-12-06T14:21:49.905Z,1.74
2022-12-06T14:24:54.767Z,1.71
2022-12-06T14:27:23.696Z,1.81
2022-12-06T14:30:23.512Z,1.85
2022-12-06T14:32:57.063Z,1.74
2022-12-06T14:35:35.790Z,1.76
2022-12-06T14:38:21.841Z,1.82
2022-12-06T14:41:07.377Z,1.86
2022-12-06T14:43:34.742Z,1.76
2022-12-06T14:46:04.851Z,1.85
2022-12-06T14:48:52.888Z,1.86
2022-12-06T14:51:25.777Z,1.77
2022-12-06T14:53:52.723Z,1.85
2022-12-06T14:56:33.466Z,1.87
2022-12-06T14:59:08.884Z,1.81
2022-12-06T15:01:36.381Z,1.76
2022-12-06T15:04:07.974Z,1.82
2022-12-06T15:06:36.727Z,1.78
2022-12-06T15:09:13.591Z,1.76
2022-12-06T15:12:02.144Z,1.76
2022-12-06T15:14:45.705Z,1.87
2022-12-06T15:17:12.066Z,1.76
2022-12-06T15:19:52.628Z,1.69
2022-12-06T15:22:25.782Z,1.80
2022-12-06T15:24:57.626Z,1.80
2022-12-06T15:27:27.191Z,1.82
2022-12-06T15:29:53.950Z,1.91
2022-12-06T15:32:23.369Z,1.84
2022-12-06T15:34:49.873Z,1.59
2022-12-06T15:40:04.586Z,1.73
2022-12-06T15:42:31.332Z,1.72
2022-12-06T15:44:57.687Z,1.81
2022-12-06T15:47:24.072Z,1.88
2022-12-06T15:49:52.333Z,1.90
2022-12-06T15:52:24.936Z,1.82
2022-12-06T15:54:52.575Z,1.86
2022-12-06T15:57:18.895Z,1.72
2022-12-06T15:59:45.402Z,1.67
2022-12-06T16:02:19.646Z,1.67
2022-12-06T16:04:48.459Z,1.68
2022-12-06T16:07:18.509Z,1.73
2022-12-06T16:09:45.567Z,1.79
2022-12-06T16:12:12.023Z,1.76
2022-12-06T16:14:38.450Z,1.76
2022-12-06T16:17:04.749Z,1.75
2022-12-06T16:19:53.110Z,1.68
2022-12-06T16:22:39.453Z,1.72
2022-12-06T16:25:08.681Z,1.75
2022-12-06T16:27:35.004Z,1.62
2022-12-06T16:30:01.743Z,1.48
2022-12-06T16:32:28.144Z,1.44
2022-12-06T16:34:54.467Z,1.48
2022-12-06T16:37:20.778Z,1.41
2022-12-06T16:39:47.107Z,1.24
2022-12-06T16:42:13.501Z,1.19
2022-12-06T16:44:50.716Z,1.33
2022-12-06T16:47:17.145Z,1.27
2022-12-06T16:49:46.332Z,1.31
2022-12-06T16:52:14.223Z,1.25
2022-12-06T16:54:44.659Z,1.24
2022-12-06T16:57:11.881Z,1.24
2022-12-06T16:59:38.310Z,1.15
2022-12-06T17:02:26.458Z,1.07
2022-12-06T17:04:54.323Z,1.05
2022-12-06T17:07:23.100Z,1.05
2022-12-06T17:09:49.418Z,1.07
2022-12-06T17:12:15.971Z,1.09
2022-12-06T17:14:42.837Z,1.05
2022-12-06T17:17:18.468Z,0.84
2022-12-06T17:19:44.842Z,0.82
2022-12-06T17:22:13.126Z,0.84
2022-12-06T17:24:39.586Z,0.81
2022-12-06T17:27:06.959Z,0.68
2022-12-06T17:29:33.284Z,0.73
2022-12-06T17:31:59.656Z,0.66
2022-12-06T17:34:26.110Z,0.62
2022-12-06T17:36:52.691Z,0.65
2022-12-06T17:39:20.860Z,0.63
2022-12-06T17:42:06.189Z,0.62
2022-12-06T17:44:34.002Z,0.55
2022-12-06T17:47:00.482Z,0.55
2022-12-06T17:49:27.425Z,0.53
2022-12-06T17:51:54.431Z,0.43
2022-12-06T17:54:21.430Z,0.42
2022-12-06T17:56:53.125Z,0.47
2022-12-06T17:59:22.371Z,0.40
2022-12-06T18:04:36.630Z,0.44
2022-12-06T18:07:02.999Z,0.49
2022-12-06T18:09:29.433Z,0.50
2022-12-06T18:11:56.144Z,0.48
2022-12-06T18:14:22.582Z,0.53
2022-12-06T18:16:49.134Z,0.50
2022-12-06T18:19:18.330Z,0.43
2022-12-06T18:21:46.143Z,0.42
2022-12-06T18:24:24.621Z,0.45
2022-12-06T18:26:54.397Z,0.48
2022-12-06T18:29:23.404Z,0.48
2022-12-06T18:31:50.842Z,0.45
2022-12-06T18:34:17.324Z,0.43
2022-12-06T18:36:48.209Z,0.40
2022-12-06T18:39:16.924Z,0.45
2022-12-06T18:41:44.601Z,0.47
2022-12-06T18:44:12.134Z,0.43
2022-12-06T18:46:39.562Z,0.43
2022-12-06T18:49:06.756Z,0.43
2022-12-06T18:51:35.001Z,0.41
2022-12-06T18:54:04.570Z,0.42
2022-12-06T18:56:32.229Z,0.42
2022-12-06T18:59:00.265Z,0.43
2022-12-06T19:01:29.517Z,0.44
2022-12-06T19:04:00.113Z,0.38
2022-12-06T19:06:29.296Z,0.31
2022-12-06T19:08:57.886Z,0.34
2022-12-06T19:11:24.465Z,0.33
2022-12-06T19:13:53.595Z,0.30
2022-12-06T19:16:22.956Z,0.31
2022-12-06T19:18:50.171Z,0.32
2022-12-06T19:21:17.050Z,0.33
2022-12-06T19:23:43.533Z,0.34
2022-12-06T19:26:09.919Z,0.30
2022-12-06T19:28:39.453Z,0.31
2022-12-06T19:31:11.159Z,0.30
2022-12-06T19:33:40.386Z,0.34
2022-12-06T19:36:13.798Z,0.31
2022-12-06T19:38:40.623Z,0.25
2022-12-06T19:41:10.667Z,0.25
2022-12-06T19:43:55.624Z,0.26
2022-12-06T19:46:26.076Z,0.20
2022-12-06T19:48:55.850Z,0.26
2022-12-06T19:51:22.509Z,0.34
2022-12-06T19:53:48.917Z,0.42
2022-12-06T19:56:16.963Z,0.45
2022-12-06T19:58:44.516Z,0.45
2022-12-06T20:01:15.943Z,0.47
2022-12-06T20:03:43.208Z,0.49
2022-12-06T20:06:18.004Z,0.53
2022-12-06T20:08:46.183Z,0.59
2022-12-06T20:11:37.627Z,0.56
2022-12-06T20:14:07.135Z,0.56
2022-12-06T20:16:34.925Z,0.53
2022-12-06T20:19:01.456Z,0.61
2022-12-06T20:21:27.795Z,0.65
2022-12-06T20:23:54.384Z,0.68
2022-12-06T20:26:20.694Z,0.68
2022-12-06T20:28:47.761Z,0.73
2022-12-06T20:31:19.457Z,0.73
2022-12-06T20:33:46.535Z,0.72
2022-12-06T20:36:18.201Z,0.68
2022-12-06T20:38:45.152Z,0.65
2022-12-06T20:41:16.183Z,0.63
2022-12-06T20:43:43.134Z,0.58
2022-12-06T20:46:15.240Z,0.63
2022-12-06T20:48:42.935Z,0.55
2022-12-06T20:51:18.567Z,0.44
2022-12-06T20:53:48.552Z,0.47
2022-12-06T20:56:17.623Z,0.50
2022-12-06T20:58:45.187Z,0.58
2022-12-06T21:01:19.376Z,0.64
2022-12-06T21:03:49.771Z,0.66
2022-12-06T21:06:17.419Z,0.65
2022-12-06T21:08:44.084Z,0.59
2022-12-06T21:11:26.470Z,0.63
2022-12-06T21:13:55.133Z,0.68
2022-12-06T21:16:32.413Z,0.77
2022-12-06T21:19:07.924Z,0.84
2022-12-06T21:21:36.993Z,0.83
2022-12-06T21:24:07.333Z,0.79
2022-12-06T21:26:34.832Z,0.79
2022-12-06T21:29:01.456Z,0.80
2022-12-06T21:31:29.967Z,0.83
2022-12-06T21:33:58.440Z,0.76
2022-12-06T21:36:25.386Z,0.78
2022-12-06T21:38:52.436Z,0.82
2022-12-06T21:41:19.688Z,0.82
2022-12-06T21:43:46.432Z,0.85
2022-12-06T21:46:24.795Z,0.76
2022-12-06T21:48:55.658Z,0.72
2022-12-06T21:51:23.552Z,0.75
2022-12-06T21:53:50.566Z,0.76
2022-12-06T21:56:27.047Z,0.79
2022-12-06T21:58:54.025Z,0.83
2022-12-06T22:01:28.058Z,0.85
2022-12-06T22:03:56.871Z,0.87
2022-12-06T22:06:23.262Z,0.89
2022-12-06T22:08:56.461Z,0.93
2022-12-06T22:11:26.839Z,1.01
2022-12-06T22:13:53.506Z,0.97
2022-12-06T22:16:19.967Z,0.99
2022-12-06T22:18:46.705Z,1.00
2022-12-06T22:21:21.215Z,1.00
2022-12-06T22:23:48.462Z,1.00
2022-12-06T22:26:21.641Z,0.98
2022-12-06T22:28:50.214Z,0.99
2022-12-06T22:31:25.926Z,1.00
2022-12-06T22:33:53.414Z,1.04
2022-12-06T22:36:23.591Z,1.02
2022-12-06T22:38:51.806Z,1.03
2022-12-06T22:41:19.339Z,1.06
2022-12-06T22:43:49.419Z,1.04
2022-12-06T22:46:16.727Z,1.11
2022-12-06T22:48:43.508Z,1.19
2022-12-06T22:51:12.655Z,1.19
2022-12-06T22:53:40.703Z,1.13
2022-12-06T22:56:07.706Z,1.10
2022-12-06T22:58:34.046Z,1.09
2022-12-06T23:01:17.839Z,1.14
2022-12-06T23:03:49.437Z,1.12
2022-12-06T23:06:20.226Z,1.18
2022-12-06T23:08:47.087Z,1.21
2022-12-06T23:11:18.893Z,1.22
2022-12-06T23:13:46.226Z,1.26
2022-12-06T23:16:19.246Z,1.32
2022-12-06T23:18:46.445Z,1.27
2022-12-06T23:21:18.765Z,1.30
2022-12-06T23:23:47.358Z,1.29
2022-12-06T23:26:19.663Z,1.32
2022-12-06T23:28:46.852Z,1.34
2022-12-06T23:31:17.986Z,1.35
2022-12-06T23:33:45.324Z,1.40
2022-12-06T23:36:18.014Z,1.37
2022-12-06T23:38:44.809Z,1.44
2022-12-06T23:41:14.182Z,1.50
2022-12-06T23:43:41.586Z,1.47
2022-12-06T23:46:11.912Z,1.53
2022-12-06T23:48:38.581Z,1.53
2022-12-06T23:51:12.456Z,1.57
2022-12-06T23:53:39.726Z,1.61
2022-12-06T23:56:11.859Z,1.60
2022-12-06T23:58:39.300Z,1.53
